createdAt,value
2022-12-03T00:00:12.778Z,102482.06
2022-12-03T00:02:40.905Z,102514.63
2022-12-03T00:05:09.212Z,102521.50
2022-12-03T00:07:38.380Z,102518.00
2022-12-03T00:10:07.748Z,102519.31
2022-12-03T00:12:35.466Z,102493.94
2022-12-03T00:15:03.270Z,102524.38
2022-12-03T00:17:30.976Z,102510.56
2022-12-03T00:19:58.634Z,102504.69
2022-12-03T00:22:26.405Z,102522.25
2022-12-03T00:24:55.902Z,102511.31
2022-12-03T00:27:23.778Z,102512.66
2022-12-03T00:29:51.432Z,102513.44
2022-12-03T00:32:19.203Z,102512.97
2022-12-03T00:34:46.942Z,102510.16
2022-12-03T00:37:14.740Z,102508.47
2022-12-03T00:39:42.451Z,102488.81
2022-12-03T00:42:11.557Z,102521.63
2022-12-03T00:44:39.277Z,102526.53
2022-12-03T00:47:07.108Z,102521.38
2022-12-03T00:49:34.857Z,102519.22
2022-12-03T00:52:02.613Z,102518.06
2022-12-03T00:54:32.245Z,102507.72
2022-12-03T00:57:00.146Z,102513.13
2022-12-03T00:59:29.200Z,102503.59
2022-12-03T01:01:57.109Z,102512.88
2022-12-03T01:04:24.951Z,102513.63
2022-12-03T01:06:52.683Z,102518.66
2022-12-03T01:09:20.446Z,102518.59
2022-12-03T01:11:48.187Z,102523.44
2022-12-03T01:14:18.624Z,102529.91
2022-12-03T01:16:48.537Z,102519.56
2022-12-03T01:19:17.694Z,102481.59
2022-12-03T01:21:46.699Z,102465.09
2022-12-03T01:24:14.739Z,102526.34
2022-12-03T01:26:42.832Z,102524.69
2022-12-03T01:29:10.546Z,102522.94
2022-12-03T01:31:55.541Z,102521.44
2022-12-03T01:34:24.902Z,102524.81
2022-12-03T01:36:53.524Z,102524.41
2022-12-03T01:39:21.508Z,102527.13
2022-12-03T01:41:51.337Z,102531.13
2022-12-03T01:44:22.979Z,102537.56
2022-12-03T01:46:52.911Z,102519.97
2022-12-03T01:49:26.353Z,102517.56
2022-12-03T01:51:55.738Z,102527.50
2022-12-03T01:54:27.661Z,102533.59
2022-12-03T01:56:56.303Z,102515.28
2022-12-03T01:59:34.275Z,102497.75
2022-12-03T02:02:09.729Z,102529.44
2022-12-03T02:04:38.937Z,102531.22
2022-12-03T02:07:20.983Z,102518.06
2022-12-03T02:09:48.844Z,102523.72
2022-12-03T02:12:19.185Z,102525.38
2022-12-03T02:14:47.337Z,102514.34
2022-12-03T02:17:15.197Z,102538.50
2022-12-03T02:19:44.487Z,102527.59
2022-12-03T02:22:22.720Z,102531.31
2022-12-03T02:24:56.629Z,102525.00
2022-12-03T02:27:25.776Z,102526.03
2022-12-03T02:29:53.520Z,102537.22
2022-12-03T02:32:23.415Z,102494.69
2022-12-03T02:34:52.237Z,102502.41
2022-12-03T02:37:24.022Z,102539.56
2022-12-03T02:39:54.815Z,102535.44
2022-12-03T02:42:38.297Z,102524.44
2022-12-03T02:45:11.202Z,102510.53
2022-12-03T02:47:42.476Z,102522.00
2022-12-03T02:50:12.491Z,102534.75
2022-12-03T02:52:41.308Z,102538.41
2022-12-03T02:55:10.898Z,102478.47
2022-12-03T02:57:40.242Z,102524.41
2022-12-03T03:00:11.973Z,102536.44
2022-12-03T03:02:42.539Z,102527.69
2022-12-03T03:05:12.490Z,102525.25
2022-12-03T03:07:41.055Z,102524.13
2022-12-03T03:10:12.555Z,102527.47
2022-12-03T03:12:40.646Z,102524.94
2022-12-03T03:15:12.173Z,102529.56
2022-12-03T03:17:42.076Z,102527.13
2022-12-03T03:20:11.354Z,102529.34
2022-12-03T03:22:41.726Z,102529.81
2022-12-03T03:25:11.918Z,102507.28
2022-12-03T03:27:40.917Z,102504.41
2022-12-03T03:30:11.699Z,102531.47
2022-12-03T03:32:41.197Z,102540.41
2022-12-03T03:35:10.399Z,102523.53
2022-12-03T03:37:38.387Z,102524.06
2022-12-03T03:40:07.465Z,102522.47
2022-12-03T03:42:36.033Z,102529.50
2022-12-03T03:45:03.829Z,102523.41
2022-12-03T03:47:33.426Z,102509.97
2022-12-03T03:50:01.596Z,102399.47
2022-12-03T03:52:30.262Z,102532.34
2022-12-03T03:54:58.151Z,102539.69
2022-12-03T03:57:25.929Z,102517.16
2022-12-03T03:59:53.962Z,102517.97
2022-12-03T04:02:25.183Z,102518.44
2022-12-03T04:04:54.843Z,102517.13
2022-12-03T04:07:22.777Z,102530.88
2022-12-03T04:09:50.660Z,102508.41
2022-12-03T04:12:35.944Z,102521.50
2022-12-03T04:15:03.776Z,102523.41
2022-12-03T04:17:31.494Z,102517.44
2022-12-03T04:20:00.557Z,102514.34
2022-12-03T04:22:42.702Z,102506.84
2022-12-03T04:25:28.848Z,102527.44
2022-12-03T04:28:14.088Z,102530.22
2022-12-03T04:30:41.952Z,102517.25
2022-12-03T04:33:35.434Z,102514.53
2022-12-03T04:36:05.030Z,102517.63
2022-12-03T04:38:32.768Z,102531.66
2022-12-03T04:41:04.348Z,102516.69
2022-12-03T04:43:33.427Z,102509.31
2022-12-03T04:46:02.354Z,102516.47
2022-12-03T04:48:30.153Z,102480.88
2022-12-03T04:50:57.923Z,102529.31
2022-12-03T04:53:27.095Z,102514.41
2022-12-03T04:55:54.840Z,102520.00
2022-12-03T04:58:22.633Z,102478.53
2022-12-03T05:00:50.441Z,102529.66
2022-12-03T05:03:18.175Z,102524.28
2022-12-03T05:05:45.848Z,102516.44
2022-12-03T05:08:13.625Z,102533.59
2022-12-03T05:10:42.866Z,102529.44
2022-12-03T05:13:10.634Z,102530.50
2022-12-03T05:15:38.380Z,102522.72
2022-12-03T05:18:06.571Z,102521.13
2022-12-03T05:20:47.137Z,102529.25
2022-12-03T05:23:20.740Z,102528.81
2022-12-03T05:25:49.933Z,102531.28
2022-12-03T05:28:17.879Z,102523.28
2022-12-03T05:30:45.721Z,102502.34
2022-12-03T05:33:13.396Z,102527.88
2022-12-03T05:35:41.086Z,102535.50
2022-12-03T05:38:08.851Z,102510.19
2022-12-03T05:40:36.629Z,102507.88
2022-12-03T05:43:05.011Z,102514.97
2022-12-03T05:45:34.754Z,102515.44
2022-12-03T05:48:03.554Z,102520.94
2022-12-03T05:50:33.395Z,102516.59
2022-12-03T05:53:01.499Z,102506.53
2022-12-03T05:55:29.477Z,102524.44
2022-12-03T05:57:57.481Z,102515.59
2022-12-03T06:00:28.754Z,102500.09
2022-12-03T06:02:57.408Z,102497.00
2022-12-03T06:05:25.807Z,102514.84
2022-12-03T06:07:54.266Z,102506.53
2022-12-03T06:10:24.099Z,102513.94
2022-12-03T06:12:52.641Z,102513.47
2022-12-03T06:15:21.299Z,102459.50
2022-12-03T06:17:50.487Z,102478.50
2022-12-03T06:20:20.223Z,102510.47
2022-12-03T06:22:48.558Z,102498.84
2022-12-03T06:25:17.327Z,102504.97
2022-12-03T06:27:45.513Z,102512.94
2022-12-03T06:30:14.591Z,102488.00
2022-12-03T06:32:42.400Z,102512.78
2022-12-03T06:35:12.632Z,102461.97
2022-12-03T06:37:40.608Z,102496.94
2022-12-03T06:40:09.559Z,102517.91
2022-12-03T06:42:37.251Z,102494.84
2022-12-03T06:45:05.700Z,102508.56
2022-12-03T06:47:33.475Z,102501.41
2022-12-03T06:50:01.286Z,102502.88
2022-12-03T06:52:30.386Z,102500.75
2022-12-03T06:54:58.132Z,102505.88
2022-12-03T06:57:25.783Z,102491.97
2022-12-03T06:59:53.699Z,102505.69
2022-12-03T07:02:21.544Z,102483.88
2022-12-03T07:04:49.377Z,102492.88
2022-12-03T07:07:17.044Z,102495.13
2022-12-03T07:09:46.259Z,102489.06
2022-12-03T07:12:13.937Z,102502.50
2022-12-03T07:14:41.656Z,102499.34
2022-12-03T07:17:09.394Z,102478.13
2022-12-03T07:19:37.129Z,102502.44
2022-12-03T07:22:04.856Z,102500.94
2022-12-03T07:24:33.137Z,102492.31
2022-12-03T07:27:02.249Z,102499.41
2022-12-03T07:29:30.028Z,102509.72
2022-12-03T07:31:57.809Z,102510.00
2022-12-03T07:34:25.583Z,102501.69
2022-12-03T07:36:53.347Z,102524.28
2022-12-03T07:39:21.112Z,102498.41
2022-12-03T07:41:48.873Z,102508.38
2022-12-03T07:44:17.963Z,102504.41
2022-12-03T07:46:45.864Z,102506.09
2022-12-03T07:49:13.710Z,102513.22
2022-12-03T07:51:41.408Z,102504.03
2022-12-03T07:54:09.411Z,102512.53
2022-12-03T07:56:37.199Z,102509.66
2022-12-03T07:59:04.942Z,102489.59
2022-12-03T08:01:34.289Z,102471.19
2022-12-03T08:04:02.139Z,102474.97
2022-12-03T08:06:29.816Z,102480.75
2022-12-03T08:08:57.547Z,102478.75
2022-12-03T08:11:25.262Z,102486.28
2022-12-03T08:13:53.019Z,102448.56
2022-12-03T08:16:22.791Z,102480.72
2022-12-03T08:18:52.521Z,102483.34
2022-12-03T08:21:23.266Z,102479.88
2022-12-03T08:23:51.059Z,102498.16
2022-12-03T08:26:22.936Z,102488.41
2022-12-03T08:28:51.057Z,102450.44
2022-12-03T08:31:21.193Z,102479.31
2022-12-03T08:33:52.760Z,102493.31
2022-12-03T08:36:24.094Z,102468.06
2022-12-03T08:38:55.763Z,102493.41
2022-12-03T08:41:37.992Z,102469.53
2022-12-03T08:44:16.392Z,102460.97
2022-12-03T08:46:44.221Z,102485.84
2022-12-03T08:49:13.402Z,102472.53
2022-12-03T08:51:41.108Z,102477.19
2022-12-03T08:54:15.523Z,102421.88
2022-12-03T08:56:43.912Z,102463.03
2022-12-03T08:59:25.196Z,102467.94
2022-12-03T09:01:53.556Z,102466.31
2022-12-03T09:04:37.227Z,102469.31
2022-12-03T09:07:04.998Z,102475.50
2022-12-03T09:09:33.673Z,102476.38
2022-12-03T09:12:02.082Z,102462.16
2022-12-03T09:14:29.813Z,102458.97
2022-12-03T09:16:57.611Z,102453.53
2022-12-03T09:19:30.893Z,102452.41
2022-12-03T09:21:58.688Z,102454.09
2022-12-03T09:24:26.342Z,102447.63
2022-12-03T09:26:54.091Z,102441.66
2022-12-03T09:29:21.848Z,102443.97
2022-12-03T09:31:49.743Z,102436.00
2022-12-03T09:34:17.512Z,102438.75
2022-12-03T09:36:46.570Z,102455.06
2022-12-03T09:39:14.275Z,102445.50
2022-12-03T09:41:41.983Z,102460.44
2022-12-03T09:44:17.209Z,102430.50
2022-12-03T09:46:47.923Z,102446.72
2022-12-03T09:49:19.687Z,102435.63
2022-12-03T09:51:48.967Z,102437.94
2022-12-03T09:54:23.937Z,102430.84
2022-12-03T09:56:52.280Z,102420.31
2022-12-03T09:59:20.486Z,102430.75
2022-12-03T10:01:48.643Z,102413.75
2022-12-03T10:04:16.615Z,102424.00
2022-12-03T10:06:46.271Z,102393.00
2022-12-03T10:09:20.860Z,102411.13
2022-12-03T10:11:48.667Z,102429.56
2022-12-03T10:14:19.894Z,102419.22
2022-12-03T10:16:47.764Z,102410.88
2022-12-03T10:19:20.632Z,102409.78
2022-12-03T10:21:48.443Z,102400.53
2022-12-03T10:24:25.468Z,102330.41
2022-12-03T10:26:55.046Z,102413.19
2022-12-03T10:29:29.921Z,102399.75
2022-12-03T10:32:01.783Z,102399.34
2022-12-03T10:34:31.797Z,102393.88
2022-12-03T10:37:11.390Z,102406.16
2022-12-03T10:40:00.711Z,102403.06
2022-12-03T10:42:30.149Z,102380.38
2022-12-03T10:45:22.554Z,102395.81
2022-12-03T10:48:12.095Z,102381.56
2022-12-03T10:50:48.375Z,102381.81
2022-12-03T10:53:16.849Z,102346.56
2022-12-03T10:55:47.566Z,102384.13
2022-12-03T10:58:22.331Z,102374.16
2022-12-03T11:00:51.363Z,102386.81
2022-12-03T11:03:21.724Z,102370.41
2022-12-03T11:05:50.167Z,102386.69
2022-12-03T11:08:23.213Z,102375.84
2022-12-03T11:11:00.467Z,102376.22
2022-12-03T11:13:52.843Z,102350.53
2022-12-03T11:17:08.648Z,102370.13
2022-12-03T11:19:45.334Z,102369.88
2022-12-03T11:22:27.557Z,102371.34
2022-12-03T11:25:45.817Z,102359.97
2022-12-03T11:28:54.625Z,102353.00
2022-12-03T11:31:39.999Z,102346.78
2022-12-03T11:34:50.306Z,102334.69
2022-12-03T11:37:26.254Z,102333.03
2022-12-03T11:40:31.489Z,102324.31
2022-12-03T11:43:02.530Z,102326.66
2022-12-03T11:45:36.241Z,102320.25
2022-12-03T11:48:14.001Z,102302.47
2022-12-03T11:50:43.635Z,102302.00
2022-12-03T11:53:18.165Z,102312.91
2022-12-03T11:55:48.768Z,102311.75
2022-12-03T11:58:19.146Z,102298.63
2022-12-03T12:00:52.991Z,102294.81
2022-12-03T12:03:24.779Z,102301.25
2022-12-03T12:06:07.960Z,102295.47
2022-12-03T12:08:37.132Z,102284.59
2022-12-03T12:11:16.845Z,102294.81
2022-12-03T12:13:57.976Z,102289.50
2022-12-03T12:16:47.516Z,102275.63
2022-12-03T12:19:49.745Z,102282.50
2022-12-03T12:22:30.334Z,102271.59
2022-12-03T12:24:58.975Z,102259.41
2022-12-03T12:27:35.839Z,102273.41
2022-12-03T12:30:06.629Z,102268.53
2022-12-03T12:32:39.850Z,102277.31
2022-12-03T12:35:16.635Z,102261.41
2022-12-03T12:37:53.514Z,102259.91
2022-12-03T12:40:28.556Z,102239.16
2022-12-03T12:42:58.298Z,102253.34
2022-12-03T12:45:27.791Z,102248.53
2022-12-03T12:48:06.524Z,102215.00
2022-12-03T12:50:34.748Z,102232.91
2022-12-03T12:53:09.600Z,102229.41
2022-12-03T12:55:37.920Z,102238.47
2022-12-03T12:58:12.438Z,102220.16
2022-12-03T13:00:40.228Z,102231.94
2022-12-03T13:03:11.431Z,102193.09
2022-12-03T13:05:41.767Z,102233.50
2022-12-03T13:08:21.584Z,102230.34
2022-12-03T13:10:50.376Z,102227.59
2022-12-03T13:13:23.203Z,102233.63
2022-12-03T13:15:59.794Z,102225.59
2022-12-03T13:18:34.164Z,102231.16
2022-12-03T13:21:13.958Z,102227.22
2022-12-03T13:23:41.956Z,102231.16
2022-12-03T13:26:32.898Z,102213.88
2022-12-03T13:29:12.720Z,102228.56
2022-12-03T13:31:43.724Z,102236.38
2022-12-03T13:34:17.615Z,102213.78
2022-12-03T13:36:52.013Z,102193.47
2022-12-03T13:39:28.002Z,102187.22
2022-12-03T13:42:13.858Z,102193.94
2022-12-03T13:44:46.176Z,102189.66
2022-12-03T13:47:17.094Z,102239.88
2022-12-03T13:49:52.125Z,102224.09
2022-12-03T13:52:22.395Z,102229.31
2022-12-03T13:54:52.501Z,102222.97
2022-12-03T13:57:20.348Z,102219.63
2022-12-03T13:59:48.373Z,102216.66
2022-12-03T14:02:16.300Z,102220.16
2022-12-03T14:04:44.109Z,102216.13
2022-12-03T14:07:13.255Z,102220.84
2022-12-03T14:09:41.025Z,102201.06
2022-12-03T14:12:27.022Z,102218.69
2022-12-03T14:14:55.049Z,102227.69
2022-12-03T14:17:22.719Z,102235.63
2022-12-03T14:19:50.438Z,102230.75
2022-12-03T14:22:23.191Z,102234.88
2022-12-03T14:24:50.910Z,102219.84
2022-12-03T14:27:18.652Z,102223.19
2022-12-03T14:29:46.483Z,102220.94
2022-12-03T14:32:14.248Z,102216.72
2022-12-03T14:34:42.003Z,102202.50
2022-12-03T14:37:09.679Z,102208.03
2022-12-03T14:39:38.776Z,102217.75
2022-12-03T14:42:15.438Z,102195.22
2022-12-03T14:44:44.384Z,102200.97
2022-12-03T14:47:13.126Z,102201.56
2022-12-03T14:49:41.431Z,102210.06
2022-12-03T14:52:12.255Z,102206.41
2022-12-03T14:54:43.180Z,102197.88
2022-12-03T14:57:12.617Z,102212.38
2022-12-03T14:59:40.579Z,102168.94
2022-12-03T15:02:08.573Z,102200.56
2022-12-03T15:04:36.369Z,102185.69
2022-12-03T15:07:04.790Z,102159.16
2022-12-03T15:09:32.550Z,102205.22
2022-12-03T15:12:01.707Z,102213.25
2022-12-03T15:14:29.531Z,102209.47
2022-12-03T15:16:57.456Z,102206.59
2022-12-03T15:19:25.240Z,102197.38
2022-12-03T15:21:52.958Z,102199.16
2022-12-03T15:24:20.699Z,102195.69
2022-12-03T15:26:49.299Z,102204.88
2022-12-03T15:29:18.447Z,102207.38
2022-12-03T15:31:46.194Z,102202.16
2022-12-03T15:34:18.869Z,102223.28
2022-12-03T15:36:50.107Z,102205.63
2022-12-03T15:39:17.860Z,102205.97
2022-12-03T15:41:45.735Z,102173.81
2022-12-03T15:44:13.573Z,102196.03
2022-12-03T15:46:42.750Z,102212.84
2022-12-03T15:49:10.591Z,102206.53
2022-12-03T15:51:38.334Z,102199.94
2022-12-03T15:54:21.378Z,102215.28
2022-12-03T15:56:54.034Z,102108.94
2022-12-03T15:59:24.627Z,102192.88
2022-12-03T16:01:53.784Z,102201.03
2022-12-03T16:04:21.811Z,102205.88
2022-12-03T16:06:49.554Z,102198.41
2022-12-03T16:09:19.985Z,102197.59
2022-12-03T16:11:50.144Z,102197.88
2022-12-03T16:14:20.005Z,102201.88
2022-12-03T16:16:48.045Z,102187.19
2022-12-03T16:19:17.385Z,102203.41
2022-12-03T16:21:45.162Z,102206.94
2022-12-03T16:24:13.088Z,102198.94
2022-12-03T16:26:41.017Z,102188.56
2022-12-03T16:29:08.898Z,102196.34
2022-12-03T16:31:36.870Z,102194.03
2022-12-03T16:34:04.794Z,102179.06
2022-12-03T16:36:34.057Z,102181.59
2022-12-03T16:39:02.218Z,102162.28
2022-12-03T16:41:30.124Z,102195.75
2022-12-03T16:43:58.092Z,102205.84
2022-12-03T16:46:26.844Z,102183.25
2022-12-03T16:48:56.507Z,102190.81
2022-12-03T16:51:24.881Z,102190.19
2022-12-03T16:53:54.470Z,102189.44
2022-12-03T16:56:22.451Z,102191.22
2022-12-03T16:58:50.202Z,102206.47
2022-12-03T17:01:18.455Z,102199.28
2022-12-03T17:03:46.287Z,102207.03
2022-12-03T17:06:14.270Z,102210.97
2022-12-03T17:08:47.279Z,102220.88
2022-12-03T17:11:18.796Z,102167.16
2022-12-03T17:13:46.616Z,102200.34
2022-12-03T17:16:14.468Z,102202.72
2022-12-03T17:18:42.646Z,102199.34
2022-12-03T17:21:10.521Z,102194.06
2022-12-03T17:23:38.263Z,102192.53
2022-12-03T17:26:06.307Z,102182.81
2022-12-03T17:28:35.685Z,102180.59
2022-12-03T17:31:03.731Z,102177.75
2022-12-03T17:33:31.490Z,102187.19
2022-12-03T17:35:59.534Z,102180.91
2022-12-03T17:38:27.478Z,102184.16
2022-12-03T17:40:55.348Z,102180.91
2022-12-03T17:43:23.193Z,102186.69
2022-12-03T17:45:52.510Z,102179.28
2022-12-03T17:48:20.311Z,102172.31
2022-12-03T17:50:48.608Z,102184.53
2022-12-03T17:53:16.315Z,102194.81
2022-12-03T17:55:45.194Z,102184.31
2022-12-03T17:58:13.099Z,102187.97
2022-12-03T18:00:41.351Z,102189.28
2022-12-03T18:03:10.702Z,102186.31
2022-12-03T18:05:38.553Z,102184.09
2022-12-03T18:08:07.133Z,102174.00
2022-12-03T18:10:35.032Z,102196.88
2022-12-03T18:13:02.852Z,102194.88
2022-12-03T18:15:31.087Z,102191.09
2022-12-03T18:17:58.781Z,102191.78
2022-12-03T18:20:28.031Z,102195.56
2022-12-03T18:22:55.759Z,102189.53
2022-12-03T18:25:23.452Z,102190.09
2022-12-03T18:27:51.164Z,102198.19
2022-12-03T18:30:19.126Z,102192.94
2022-12-03T18:32:47.789Z,102180.53
2022-12-03T18:35:15.718Z,102207.63
2022-12-03T18:37:44.953Z,102186.75
2022-12-03T18:40:19.368Z,102193.03
2022-12-03T18:42:47.424Z,102207.53
2022-12-03T18:45:16.685Z,102192.44
2022-12-03T18:47:44.607Z,102209.59
2022-12-03T18:50:13.255Z,102204.63
2022-12-03T18:52:41.095Z,102210.81
2022-12-03T18:55:18.559Z,102201.13
2022-12-03T18:57:46.337Z,102195.94
2022-12-03T19:00:15.336Z,102215.81
2022-12-03T19:03:02.471Z,102210.16
2022-12-03T19:05:31.477Z,102210.47
2022-12-03T19:07:59.294Z,102195.78
2022-12-03T19:10:28.684Z,102182.25
2022-12-03T19:12:56.379Z,102207.88
2022-12-03T19:15:24.217Z,102213.94
2022-12-03T19:17:52.446Z,102150.94
2022-12-03T19:20:20.419Z,102191.69
2022-12-03T19:22:48.113Z,102206.94
2022-12-03T19:25:16.133Z,102188.97
2022-12-03T19:27:45.286Z,102155.81
2022-12-03T19:30:13.984Z,102204.59
2022-12-03T19:32:41.760Z,102202.53
2022-12-03T19:35:11.403Z,102201.50
2022-12-03T19:37:39.615Z,102195.53
2022-12-03T19:40:10.188Z,102205.09
2022-12-03T19:42:37.972Z,102199.59
2022-12-03T19:45:08.702Z,102185.91
2022-12-03T19:47:36.555Z,102216.44
2022-12-03T19:50:05.558Z,102211.66
2022-12-03T19:52:36.289Z,102222.91
2022-12-03T19:55:05.141Z,102207.19
2022-12-03T19:57:32.942Z,102202.38
2022-12-03T20:00:01.125Z,102220.03
2022-12-03T20:02:30.491Z,102230.97
2022-12-03T20:04:58.237Z,102205.72
2022-12-03T20:07:26.101Z,102205.97
2022-12-03T20:09:54.301Z,102211.97
2022-12-03T20:12:22.303Z,102226.00
2022-12-03T20:14:51.661Z,102191.72
2022-12-03T20:17:19.526Z,102226.25
2022-12-03T20:19:49.036Z,102208.16
2022-12-03T20:22:16.866Z,102222.84
2022-12-03T20:24:44.764Z,102233.69
2022-12-03T20:27:12.638Z,102225.88
2022-12-03T20:29:40.580Z,102219.06
2022-12-03T20:32:08.511Z,102238.78
2022-12-03T20:34:36.364Z,102230.88
2022-12-03T20:37:05.945Z,102219.50
2022-12-03T20:39:33.714Z,102211.63
2022-12-03T20:42:01.410Z,102216.09
2022-12-03T20:44:29.196Z,102191.84
2022-12-03T20:46:56.884Z,102217.47
2022-12-03T20:49:24.631Z,102210.56
2022-12-03T20:51:52.357Z,102218.91
2022-12-03T20:54:21.469Z,102208.72
2022-12-03T20:56:49.285Z,102215.28
2022-12-03T20:59:18.481Z,102218.97
2022-12-03T21:01:46.543Z,102220.75
2022-12-03T21:04:16.050Z,102218.84
2022-12-03T21:06:44.026Z,102237.31
2022-12-03T21:09:13.294Z,102218.66
2022-12-03T21:11:42.656Z,102225.19
2022-12-03T21:14:11.952Z,102226.63
2022-12-03T21:19:29.934Z,102224.34
2022-12-03T21:21:57.765Z,102230.28
2022-12-03T21:24:25.591Z,102233.34
2022-12-03T21:26:54.709Z,102237.66
2022-12-03T21:29:22.504Z,102230.69
2022-12-03T21:31:50.463Z,102214.06
2022-12-03T21:34:18.477Z,102206.97
2022-12-03T21:36:46.361Z,102233.31
2022-12-03T21:39:14.375Z,102229.53
2022-12-03T21:42:22.053Z,102220.41
2022-12-03T21:44:31.498Z,102235.28
2022-12-03T21:47:12.621Z,102235.66
2022-12-03T21:49:42.164Z,102213.81
2022-12-03T21:52:10.092Z,102247.34
2022-12-03T21:54:37.848Z,102216.13
2022-12-03T21:57:05.621Z,102237.59
2022-12-03T21:59:34.754Z,102223.31
2022-12-03T22:02:02.678Z,102230.88
2022-12-03T22:04:30.696Z,102228.44
2022-12-03T22:06:58.429Z,102209.19
2022-12-03T22:09:26.940Z,102159.44
2022-12-03T22:11:56.895Z,102218.97
2022-12-03T22:14:24.779Z,102210.00
2022-12-03T22:16:54.179Z,102213.00
2022-12-03T22:19:23.462Z,102168.97
2022-12-03T22:21:51.347Z,102238.38
2022-12-03T22:24:19.722Z,102220.03
2022-12-03T22:26:47.510Z,102210.13
2022-12-03T22:29:15.173Z,102215.56
2022-12-03T22:31:42.996Z,102226.06
2022-12-03T22:34:12.109Z,102218.22
2022-12-03T22:36:39.867Z,102179.28
2022-12-03T22:39:07.659Z,102221.75
2022-12-03T22:41:35.392Z,102228.47
2022-12-03T22:44:03.129Z,102223.53
2022-12-03T22:46:30.976Z,102214.38
2022-12-03T22:49:03.459Z,102218.06
2022-12-03T22:51:36.803Z,102220.38
2022-12-03T22:54:05.578Z,102171.16
2022-12-03T22:56:34.077Z,102207.09
2022-12-03T22:59:01.805Z,102208.25
2022-12-03T23:01:32.120Z,102201.59
2022-12-03T23:04:00.397Z,102202.53
2022-12-03T23:06:29.163Z,102213.03
2022-12-03T23:08:59.359Z,102202.69
2022-12-03T23:11:27.954Z,102202.69
2022-12-03T23:13:55.695Z,102202.97
2022-12-03T23:16:26.294Z,102203.81
2022-12-03T23:18:54.630Z,102213.13
2022-12-03T23:21:29.896Z,102202.16
2022-12-03T23:23:59.898Z,102207.66
2022-12-03T23:26:28.171Z,102201.75
2022-12-03T23:28:56.327Z,102196.00
2022-12-03T23:31:26.800Z,102211.16
2022-12-03T23:33:55.443Z,102191.34
2022-12-03T23:36:24.345Z,102199.59
2022-12-03T23:38:54.371Z,102200.22
2022-12-03T23:41:24.697Z,102198.56
2022-12-03T23:43:52.805Z,102200.22
2022-12-03T23:46:23.208Z,102184.13
2022-12-03T23:48:52.186Z,102209.84
2022-12-03T23:51:21.769Z,102218.78
2022-12-03T23:53:49.439Z,102213.16
2022-12-03T23:56:19.022Z,102201.50
2022-12-03T23:58:48.464Z,102201.53
